sensor_id;sensor_type;location;lat;lon;timestamp;P1;P2;P0
21358;PMS7003;13506;50.852;20.632;2022-09-11T00:00:56;6.80;6.00;3.20
21358;PMS7003;13506;50.852;20.632;2022-09-11T00:03:30;6.60;5.80;3.00
21358;PMS7003;13506;50.852;20.632;2022-09-11T00:06:00;8.20;7.60;3.00
21358;PMS7003;13506;50.852;20.632;2022-09-11T00:08:29;7.60;6.60;3.00
21358;PMS7003;13506;50.852;20.632;2022-09-11T00:11:01;10.00;7.80;3.60
21358;PMS7003;13506;50.852;20.632;2022-09-11T00:13:32;7.20;7.20;3.80
21358;PMS7003;13506;50.852;20.632;2022-09-11T00:16:03;10.40;9.40;4.40
21358;PMS7003;13506;50.852;20.632;2022-09-11T00:18:34;6.00;4.80;3.00
21358;PMS7003;13506;50.852;20.632;2022-09-11T00:21:02;6.80;6.80;3.00
21358;PMS7003;13506;50.852;20.632;2022-09-11T00:23:32;9.60;8.00;3.80
21358;PMS7003;13506;50.852;20.632;2022-09-11T00:26:01;8.80;8.80;4.60
21358;PMS7003;13506;50.852;20.632;2022-09-11T00:28:30;8.00;6.60;4.00
21358;PMS7003;13506;50.852;20.632;2022-09-11T00:30:59;10.60;8.00;4.00
21358;PMS7003;13506;50.852;20.632;2022-09-11T00:33:30;12.60;9.00;5.00
21358;PMS7003;13506;50.852;20.632;2022-09-11T00:36:00;9.40;7.80;4.60
21358;PMS7003;13506;50.852;20.632;2022-09-11T00:38:31;8.60;8.20;4.00
21358;PMS7003;13506;50.852;20.632;2022-09-11T00:41:01;8.60;7.40;3.00
21358;PMS7003;13506;50.852;20.632;2022-09-11T00:46:17;9.80;8.40;3.80
21358;PMS7003;13506;50.852;20.632;2022-09-11T00:48:47;9.20;6.80;3.00
21358;PMS7003;13506;50.852;20.632;2022-09-11T00:51:18;10.60;8.80;4.40
21358;PMS7003;13506;50.852;20.632;2022-09-11T00:53:51;8.20;8.20;5.00
21358;PMS7003;13506;50.852;20.632;2022-09-11T00:56:21;13.20;9.80;4.00
21358;PMS7003;13506;50.852;20.632;2022-09-11T00:58:52;7.80;7.80;4.20
21358;PMS7003;13506;50.852;20.632;2022-09-11T01:01:21;10.40;7.00;3.80
21358;PMS7003;13506;50.852;20.632;2022-09-11T01:03:49;9.60;9.40;4.00
21358;PMS7003;13506;50.852;20.632;2022-09-11T01:06:18;8.60;8.00;4.60
21358;PMS7003;13506;50.852;20.632;2022-09-11T01:08:46;10.60;10.00;5.00
21358;PMS7003;13506;50.852;20.632;2022-09-11T01:11:25;11.40;11.00;5.00
21358;PMS7003;13506;50.852;20.632;2022-09-11T01:14:06;11.20;11.00;5.80
21358;PMS7003;13506;50.852;20.632;2022-09-11T01:16:51;10.60;9.20;4.20
21358;PMS7003;13506;50.852;20.632;2022-09-11T01:19:34;13.80;11.20;4.60
21358;PMS7003;13506;50.852;20.632;2022-09-11T01:22:23;9.40;8.00;4.80
21358;PMS7003;13506;50.852;20.632;2022-09-11T01:25:15;12.20;10.40;6.20
21358;PMS7003;13506;50.852;20.632;2022-09-11T01:27:54;10.60;10.60;3.80
21358;PMS7003;13506;50.852;20.632;2022-09-11T01:30:27;14.00;11.20;5.20
21358;PMS7003;13506;50.852;20.632;2022-09-11T01:33:05;18.40;15.40;8.80
21358;PMS7003;13506;50.852;20.632;2022-09-11T01:35:50;22.80;14.00;8.00
21358;PMS7003;13506;50.852;20.632;2022-09-11T01:38:24;20.60;16.20;8.20
21358;PMS7003;13506;50.852;20.632;2022-09-11T01:41:01;16.80;14.80;7.60
21358;PMS7003;13506;50.852;20.632;2022-09-11T01:43:38;18.80;16.40;8.20
21358;PMS7003;13506;50.852;20.632;2022-09-11T01:46:10;16.20;15.60;8.80
21358;PMS7003;13506;50.852;20.632;2022-09-11T01:48:51;20.80;16.20;8.00
21358;PMS7003;13506;50.852;20.632;2022-09-11T01:51:25;19.60;17.20;10.20
21358;PMS7003;13506;50.852;20.632;2022-09-11T01:53:58;22.40;19.80;8.80
21358;PMS7003;13506;50.852;20.632;2022-09-11T01:56:29;20.80;17.20;8.20
21358;PMS7003;13506;50.852;20.632;2022-09-11T01:59:04;19.60;16.60;9.80
21358;PMS7003;13506;50.852;20.632;2022-09-11T02:01:37;20.20;16.80;10.00
21358;PMS7003;13506;50.852;20.632;2022-09-11T02:04:12;18.20;17.00;9.80
21358;PMS7003;13506;50.852;20.632;2022-09-11T02:06:51;20.40;16.00;9.40
21358;PMS7003;13506;50.852;20.632;2022-09-11T02:09:30;16.60;16.00;10.20
21358;PMS7003;13506;50.852;20.632;2022-09-11T02:12:02;15.40;15.20;6.40
21358;PMS7003;13506;50.852;20.632;2022-09-11T02:14:37;19.60;17.60;7.40
21358;PMS7003;13506;50.852;20.632;2022-09-11T02:17:09;13.20;12.80;6.60
21358;PMS7003;13506;50.852;20.632;2022-09-11T02:19:48;15.60;12.00;7.40
21358;PMS7003;13506;50.852;20.632;2022-09-11T02:22:20;18.80;15.20;7.80
21358;PMS7003;13506;50.852;20.632;2022-09-11T02:24:48;20.40;16.40;7.80
21358;PMS7003;13506;50.852;20.632;2022-09-11T02:27:16;18.20;15.00;6.40
21358;PMS7003;13506;50.852;20.632;2022-09-11T02:29:50;19.60;18.00;7.80
21358;PMS7003;13506;50.852;20.632;2022-09-11T02:32:18;15.80;13.80;6.80
21358;PMS7003;13506;50.852;20.632;2022-09-11T02:34:47;14.80;14.80;8.00
21358;PMS7003;13506;50.852;20.632;2022-09-11T02:37:23;12.40;11.60;6.80
21358;PMS7003;13506;50.852;20.632;2022-09-11T02:43:01;17.40;13.20;6.20
21358;PMS7003;13506;50.852;20.632;2022-09-11T02:45:59;14.60;12.80;7.00
21358;PMS7003;13506;50.852;20.632;2022-09-11T02:48:52;13.00;11.80;5.20
21358;PMS7003;13506;50.852;20.632;2022-09-11T02:51:30;12.80;11.40;5.20
21358;PMS7003;13506;50.852;20.632;2022-09-11T02:54:05;14.40;10.60;5.60
21358;PMS7003;13506;50.852;20.632;2022-09-11T02:56:43;12.00;11.60;5.00
21358;PMS7003;13506;50.852;20.632;2022-09-11T02:59:16;14.80;13.40;6.80
21358;PMS7003;13506;50.852;20.632;2022-09-11T03:01:52;15.40;12.20;5.40
21358;PMS7003;13506;50.852;20.632;2022-09-11T03:04:26;10.20;10.20;4.00
21358;PMS7003;13506;50.852;20.632;2022-09-11T03:06:55;10.20;8.00;5.00
21358;PMS7003;13506;50.852;20.632;2022-09-11T03:09:25;12.20;8.40;4.40
21358;PMS7003;13506;50.852;20.632;2022-09-11T03:11:58;14.20;12.80;6.60
21358;PMS7003;13506;50.852;20.632;2022-09-11T03:14:26;12.40;9.60;4.80
21358;PMS7003;13506;50.852;20.632;2022-09-11T03:16:55;14.20;11.80;5.40
21358;PMS7003;13506;50.852;20.632;2022-09-11T03:19:23;10.20;9.80;4.80
21358;PMS7003;13506;50.852;20.632;2022-09-11T03:21:51;10.60;10.60;5.60
21358;PMS7003;13506;50.852;20.632;2022-09-11T03:24:20;17.40;12.60;5.80
21358;PMS7003;13506;50.852;20.632;2022-09-11T03:26:48;9.00;8.60;4.00
21358;PMS7003;13506;50.852;20.632;2022-09-11T03:29:16;5.00;5.00;3.00
21358;PMS7003;13506;50.852;20.632;2022-09-11T03:31:43;8.60;5.40;2.20
21358;PMS7003;13506;50.852;20.632;2022-09-11T03:34:14;5.20;5.20;2.00
21358;PMS7003;13506;50.852;20.632;2022-09-11T03:36:45;10.00;8.80;4.00
21358;PMS7003;13506;50.852;20.632;2022-09-11T03:39:13;8.60;8.00;3.00
21358;PMS7003;13506;50.852;20.632;2022-09-11T03:41:40;9.20;8.80;3.80
21358;PMS7003;13506;50.852;20.632;2022-09-11T03:44:08;12.20;9.40;5.60
21358;PMS7003;13506;50.852;20.632;2022-09-11T03:46:37;13.20;11.00;4.00
21358;PMS7003;13506;50.852;20.632;2022-09-11T03:49:07;9.60;8.20;4.40
21358;PMS7003;13506;50.852;20.632;2022-09-11T03:51:36;15.60;11.60;5.40
21358;PMS7003;13506;50.852;20.632;2022-09-11T03:54:04;14.80;13.60;7.00
21358;PMS7003;13506;50.852;20.632;2022-09-11T03:56:32;14.60;11.00;5.40
21358;PMS7003;13506;50.852;20.632;2022-09-11T03:59:01;8.40;8.00;4.00
21358;PMS7003;13506;50.852;20.632;2022-09-11T04:01:29;10.80;8.60;4.40
21358;PMS7003;13506;50.852;20.632;2022-09-11T04:03:58;13.60;12.40;6.80
21358;PMS7003;13506;50.852;20.632;2022-09-11T04:06:31;20.60;17.60;9.20
21358;PMS7003;13506;50.852;20.632;2022-09-11T04:09:01;22.80;20.40;10.60
21358;PMS7003;13506;50.852;20.632;2022-09-11T04:11:29;19.80;18.40;9.80
21358;PMS7003;13506;50.852;20.632;2022-09-11T04:14:00;11.40;9.00;5.00
21358;PMS7003;13506;50.852;20.632;2022-09-11T04:16:28;10.80;8.80;4.20
21358;PMS7003;13506;50.852;20.632;2022-09-11T04:18:57;12.40;10.20;4.40
21358;PMS7003;13506;50.852;20.632;2022-09-11T04:21:26;15.80;11.00;5.20
21358;PMS7003;13506;50.852;20.632;2022-09-11T04:23:55;10.40;10.00;4.40
21358;PMS7003;13506;50.852;20.632;2022-09-11T04:26:27;17.20;12.40;6.40
21358;PMS7003;13506;50.852;20.632;2022-09-11T04:29:04;14.20;12.80;6.00
21358;PMS7003;13506;50.852;20.632;2022-09-11T04:31:33;15.60;12.40;7.00
21358;PMS7003;13506;50.852;20.632;2022-09-11T04:34:01;18.80;14.20;7.00
21358;PMS7003;13506;50.852;20.632;2022-09-11T04:36:33;18.80;16.00;8.60
21358;PMS7003;13506;50.852;20.632;2022-09-11T04:39:00;16.60;14.60;8.20
21358;PMS7003;13506;50.852;20.632;2022-09-11T04:41:30;22.80;14.80;7.60
21358;PMS7003;13506;50.852;20.632;2022-09-11T04:44:00;20.80;16.00;8.20
21358;PMS7003;13506;50.852;20.632;2022-09-11T04:46:28;17.20;12.40;6.00
21358;PMS7003;13506;50.852;20.632;2022-09-11T04:48:58;17.60;14.20;7.40
21358;PMS7003;13506;50.852;20.632;2022-09-11T04:51:29;19.00;11.20;5.00
21358;PMS7003;13506;50.852;20.632;2022-09-11T04:53:58;11.80;8.20;5.00
21358;PMS7003;13506;50.852;20.632;2022-09-11T04:56:33;13.60;11.20;6.00
21358;PMS7003;13506;50.852;20.632;2022-09-11T04:59:04;12.60;11.00;6.00
21358;PMS7003;13506;50.852;20.632;2022-09-11T05:01:38;11.20;8.80;4.80
21358;PMS7003;13506;50.852;20.632;2022-09-11T05:04:06;9.20;8.40;4.20
21358;PMS7003;13506;50.852;20.632;2022-09-11T05:06:35;9.00;8.00;4.60
21358;PMS7003;13506;50.852;20.632;2022-09-11T05:09:08;12.40;10.00;4.40
21358;PMS7003;13506;50.852;20.632;2022-09-11T05:11:37;12.40;12.40;5.00
21358;PMS7003;13506;50.852;20.632;2022-09-11T05:14:05;12.00;11.60;5.80
21358;PMS7003;13506;50.852;20.632;2022-09-11T05:16:36;12.40;11.00;5.20
21358;PMS7003;13506;50.852;20.632;2022-09-11T05:19:04;17.40;11.20;4.20
21358;PMS7003;13506;50.852;20.632;2022-09-11T05:21:33;14.40;12.00;5.60
21358;PMS7003;13506;50.852;20.632;2022-09-11T05:24:02;12.40;9.00;4.40
21358;PMS7003;13506;50.852;20.632;2022-09-11T05:26:32;16.20;12.60;5.20
21358;PMS7003;13506;50.852;20.632;2022-09-11T05:29:04;17.40;14.20;6.20
21358;PMS7003;13506;50.852;20.632;2022-09-11T05:31:39;17.20;16.20;7.80
21358;PMS7003;13506;50.852;20.632;2022-09-11T05:34:07;19.60;14.80;6.60
21358;PMS7003;13506;50.852;20.632;2022-09-11T05:36:35;16.80;14.20;8.40
21358;PMS7003;13506;50.852;20.632;2022-09-11T05:39:03;15.00;12.60;6.20
21358;PMS7003;13506;50.852;20.632;2022-09-11T05:41:32;18.80;16.20;8.80
21358;PMS7003;13506;50.852;20.632;2022-09-11T05:44:00;17.20;15.20;8.80
21358;PMS7003;13506;50.852;20.632;2022-09-11T05:46:31;17.00;16.20;8.60
21358;PMS7003;13506;50.852;20.632;2022-09-11T05:49:01;20.80;16.40;7.00
21358;PMS7003;13506;50.852;20.632;2022-09-11T05:51:29;16.40;14.80;7.00
21358;PMS7003;13506;50.852;20.632;2022-09-11T05:54:00;19.80;14.80;7.00
21358;PMS7003;13506;50.852;20.632;2022-09-11T05:56:28;16.80;14.60;6.80
21358;PMS7003;13506;50.852;20.632;2022-09-11T05:59:00;16.00;14.00;5.60
21358;PMS7003;13506;50.852;20.632;2022-09-11T06:01:37;19.60;16.40;7.80
21358;PMS7003;13506;50.852;20.632;2022-09-11T06:04:13;16.00;13.80;7.00
21358;PMS7003;13506;50.852;20.632;2022-09-11T06:06:44;17.40;15.00;6.60
21358;PMS7003;13506;50.852;20.632;2022-09-11T06:09:13;20.00;16.20;8.80
21358;PMS7003;13506;50.852;20.632;2022-09-11T06:11:41;14.40;10.20;4.00
21358;PMS7003;13506;50.852;20.632;2022-09-11T06:14:10;17.00;12.40;6.00
21358;PMS7003;13506;50.852;20.632;2022-09-11T06:16:40;19.20;17.40;10.00
21358;PMS7003;13506;50.852;20.632;2022-09-11T06:19:11;17.60;16.20;8.20
21358;PMS7003;13506;50.852;20.632;2022-09-11T06:21:39;16.00;15.40;7.60
21358;PMS7003;13506;50.852;20.632;2022-09-11T06:24:21;21.40;15.60;7.20
21358;PMS7003;13506;50.852;20.632;2022-09-11T06:26:49;17.60;13.40;6.00
21358;PMS7003;13506;50.852;20.632;2022-09-11T06:29:16;18.60;15.40;7.60
21358;PMS7003;13506;50.852;20.632;2022-09-11T06:31:48;18.40;14.60;7.80
21358;PMS7003;13506;50.852;20.632;2022-09-11T06:34:21;21.60;16.60;9.00
21358;PMS7003;13506;50.852;20.632;2022-09-11T06:36:49;17.80;15.80;6.80
21358;PMS7003;13506;50.852;20.632;2022-09-11T06:39:16;21.60;16.60;7.00
21358;PMS7003;13506;50.852;20.632;2022-09-11T06:41:49;17.20;13.60;6.80
21358;PMS7003;13506;50.852;20.632;2022-09-11T06:44:24;18.60;15.20;8.20
21358;PMS7003;13506;50.852;20.632;2022-09-11T06:46:54;18.40;13.60;6.40
21358;PMS7003;13506;50.852;20.632;2022-09-11T06:49:23;18.00;16.20;8.40
21358;PMS7003;13506;50.852;20.632;2022-09-11T06:52:10;17.80;15.00;7.80
21358;PMS7003;13506;50.852;20.632;2022-09-11T06:54:42;17.60;12.00;6.00
21358;PMS7003;13506;50.852;20.632;2022-09-11T06:57:13;16.00;11.60;6.20
21358;PMS7003;13506;50.852;20.632;2022-09-11T06:59:41;22.20;16.00;8.80
21358;PMS7003;13506;50.852;20.632;2022-09-11T07:02:10;12.80;11.40;5.60
21358;PMS7003;13506;50.852;20.632;2022-09-11T07:04:38;15.00;13.60;7.40
21358;PMS7003;13506;50.852;20.632;2022-09-11T07:07:06;15.20;13.00;6.80
21358;PMS7003;13506;50.852;20.632;2022-09-11T07:09:36;12.60;11.80;7.60
21358;PMS7003;13506;50.852;20.632;2022-09-11T07:12:04;17.20;12.60;6.60
21358;PMS7003;13506;50.852;20.632;2022-09-11T07:14:32;16.60;14.20;7.80
21358;PMS7003;13506;50.852;20.632;2022-09-11T07:17:11;13.60;12.80;6.60
21358;PMS7003;13506;50.852;20.632;2022-09-11T07:19:40;16.20;14.20;6.00
21358;PMS7003;13506;50.852;20.632;2022-09-11T07:22:09;13.40;12.20;6.00
21358;PMS7003;13506;50.852;20.632;2022-09-11T07:24:39;13.40;11.00;6.60
21358;PMS7003;13506;50.852;20.632;2022-09-11T07:27:06;11.80;10.60;6.00
21358;PMS7003;13506;50.852;20.632;2022-09-11T07:29:35;14.60;13.80;6.00
21358;PMS7003;13506;50.852;20.632;2022-09-11T07:32:03;12.40;12.40;6.60
21358;PMS7003;13506;50.852;20.632;2022-09-11T07:34:32;11.60;10.20;5.00
21358;PMS7003;13506;50.852;20.632;2022-09-11T07:37:04;13.00;10.60;5.00
21358;PMS7003;13506;50.852;20.632;2022-09-11T07:39:37;11.60;11.00;6.20
21358;PMS7003;13506;50.852;20.632;2022-09-11T07:42:09;15.80;14.60;7.80
21358;PMS7003;13506;50.852;20.632;2022-09-11T07:44:37;14.40;11.00;5.60
21358;PMS7003;13506;50.852;20.632;2022-09-11T07:47:06;13.80;11.00;5.40
21358;PMS7003;13506;50.852;20.632;2022-09-11T07:49:41;12.00;10.00;5.00
21358;PMS7003;13506;50.852;20.632;2022-09-11T07:52:13;10.00;7.80;3.00
21358;PMS7003;13506;50.852;20.632;2022-09-11T07:54:49;9.00;6.80;2.80
21358;PMS7003;13506;50.852;20.632;2022-09-11T07:57:18;8.00;7.60;2.60
21358;PMS7003;13506;50.852;20.632;2022-09-11T07:59:47;5.00;5.00;2.60
21358;PMS7003;13506;50.852;20.632;2022-09-11T08:02:16;5.80;5.60;2.40
21358;PMS7003;13506;50.852;20.632;2022-09-11T08:04:46;7.60;5.00;2.00
21358;PMS7003;13506;50.852;20.632;2022-09-11T08:07:14;5.00;5.00;2.60
21358;PMS7003;13506;50.852;20.632;2022-09-11T08:09:42;7.60;6.20;3.40
21358;PMS7003;13506;50.852;20.632;2022-09-11T08:12:10;4.80;4.80;2.40
21358;PMS7003;13506;50.852;20.632;2022-09-11T08:14:38;4.60;4.00;2.00
21358;PMS7003;13506;50.852;20.632;2022-09-11T08:17:13;7.00;6.40;2.20
21358;PMS7003;13506;50.852;20.632;2022-09-11T08:19:41;5.00;5.00;2.20
21358;PMS7003;13506;50.852;20.632;2022-09-11T08:22:12;7.60;6.00;2.00
21358;PMS7003;13506;50.852;20.632;2022-09-11T08:24:43;8.20;6.60;3.40
21358;PMS7003;13506;50.852;20.632;2022-09-11T08:27:14;10.20;7.80;3.00
21358;PMS7003;13506;50.852;20.632;2022-09-11T08:29:44;6.20;6.00;3.00
21358;PMS7003;13506;50.852;20.632;2022-09-11T08:32:12;9.20;7.80;2.40
21358;PMS7003;13506;50.852;20.632;2022-09-11T08:34:39;7.20;6.00;3.00
21358;PMS7003;13506;50.852;20.632;2022-09-11T08:37:07;5.80;5.80;3.00
21358;PMS7003;13506;50.852;20.632;2022-09-11T08:39:38;5.00;5.00;2.20
21358;PMS7003;13506;50.852;20.632;2022-09-11T08:42:07;8.60;8.20;3.00
21358;PMS7003;13506;50.852;20.632;2022-09-11T08:44:43;7.80;7.80;3.20
21358;PMS7003;13506;50.852;20.632;2022-09-11T08:47:25;8.60;6.20;3.00
21358;PMS7003;13506;50.852;20.632;2022-09-11T08:50:00;5.80;5.40;2.20
21358;PMS7003;13506;50.852;20.632;2022-09-11T08:52:33;8.60;6.80;2.80
21358;PMS7003;13506;50.852;20.632;2022-09-11T08:55:10;7.40;7.20;3.40
21358;PMS7003;13506;50.852;20.632;2022-09-11T08:57:41;9.00;7.00;3.00
21358;PMS7003;13506;50.852;20.632;2022-09-11T09:00:23;6.00;6.00;3.00
21358;PMS7003;13506;50.852;20.632;2022-09-11T09:03:08;5.80;5.80;3.00
21358;PMS7003;13506;50.852;20.632;2022-09-11T09:05:52;8.80;7.20;3.00
21358;PMS7003;13506;50.852;20.632;2022-09-11T09:08:30;11.20;8.20;3.40
21358;PMS7003;13506;50.852;20.632;2022-09-11T09:11:15;8.40;7.00;3.60
21358;PMS7003;13506;50.852;20.632;2022-09-11T09:14:03;6.20;6.00;2.80
21358;PMS7003;13506;50.852;20.632;2022-09-11T09:16:51;9.20;7.00;3.00
21358;PMS7003;13506;50.852;20.632;2022-09-11T09:19:28;8.20;7.40;3.00
21358;PMS7003;13506;50.852;20.632;2022-09-11T09:22:04;11.80;7.00;2.80
21358;PMS7003;13506;50.852;20.632;2022-09-11T09:24:42;6.80;6.00;2.80
21358;PMS7003;13506;50.852;20.632;2022-09-11T09:27:18;5.60;5.40;1.80
21358;PMS7003;13506;50.852;20.632;2022-09-11T09:29:53;7.40;7.00;3.00
21358;PMS7003;13506;50.852;20.632;2022-09-11T09:32:26;5.80;5.60;2.80
21358;PMS7003;13506;50.852;20.632;2022-09-11T09:34:59;6.20;5.40;3.00
21358;PMS7003;13506;50.852;20.632;2022-09-11T09:37:33;7.40;7.00;2.20
21358;PMS7003;13506;50.852;20.632;2022-09-11T09:40:03;9.20;8.00;3.80
21358;PMS7003;13506;50.852;20.632;2022-09-11T09:42:55;7.40;6.60;2.40
21358;PMS7003;13506;50.852;20.632;2022-09-11T09:45:41;7.40;4.80;2.80
21358;PMS7003;13506;50.852;20.632;2022-09-11T09:48:21;14.40;11.20;7.00
21358;PMS7003;13506;50.852;20.632;2022-09-11T09:50:49;22.40;17.00;9.20
21358;PMS7003;13506;50.852;20.632;2022-09-11T09:53:19;8.80;7.80;4.00
21358;PMS7003;13506;50.852;20.632;2022-09-11T09:55:55;6.80;5.60;3.00
21358;PMS7003;13506;50.852;20.632;2022-09-11T09:58:29;6.00;6.00;3.00
21358;PMS7003;13506;50.852;20.632;2022-09-11T10:01:02;8.60;7.00;3.00
21358;PMS7003;13506;50.852;20.632;2022-09-11T10:03:58;9.40;6.00;3.80
21358;PMS7003;13506;50.852;20.632;2022-09-11T10:06:37;10.20;7.60;3.60
21358;PMS7003;13506;50.852;20.632;2022-09-11T10:09:05;6.60;6.60;3.00
21358;PMS7003;13506;50.852;20.632;2022-09-11T10:11:42;4.80;4.80;2.00
21358;PMS7003;13506;50.852;20.632;2022-09-11T10:14:14;6.40;6.40;2.80
21358;PMS7003;13506;50.852;20.632;2022-09-11T10:16:47;6.80;5.40;3.00
21358;PMS7003;13506;50.852;20.632;2022-09-11T10:19:36;5.20;5.00;2.20
21358;PMS7003;13506;50.852;20.632;2022-09-11T10:22:13;9.00;7.80;3.80
21358;PMS7003;13506;50.852;20.632;2022-09-11T10:25:00;9.00;8.00;4.40
21358;PMS7003;13506;50.852;20.632;2022-09-11T10:27:37;7.60;7.60;4.00
21358;PMS7003;13506;50.852;20.632;2022-09-11T10:32:58;11.60;9.80;4.20
21358;PMS7003;13506;50.852;20.632;2022-09-11T10:35:30;9.80;6.20;3.20
21358;PMS7003;13506;50.852;20.632;2022-09-11T10:40:54;5.00;5.00;2.80
21358;PMS7003;13506;50.852;20.632;2022-09-11T10:43:35;5.00;5.00;2.00
21358;PMS7003;13506;50.852;20.632;2022-09-11T10:46:21;7.80;7.00;3.60
21358;PMS7003;13506;50.852;20.632;2022-09-11T10:48:53;6.60;6.60;3.00
21358;PMS7003;13506;50.852;20.632;2022-09-11T10:51:24;6.00;6.00;3.00
21358;PMS7003;13506;50.852;20.632;2022-09-11T10:54:06;7.00;5.00;3.00
21358;PMS7003;13506;50.852;20.632;2022-09-11T10:56:51;7.00;5.80;3.80
21358;PMS7003;13506;50.852;20.632;2022-09-11T10:59:32;5.80;5.80;3.00
21358;PMS7003;13506;50.852;20.632;2022-09-11T11:02:14;5.60;5.60;2.20
21358;PMS7003;13506;50.852;20.632;2022-09-11T11:04:46;4.00;4.00;2.00
21358;PMS7003;13506;50.852;20.632;2022-09-11T11:07:18;8.00;7.80;3.00
21358;PMS7003;13506;50.852;20.632;2022-09-11T11:10:06;5.00;4.60;2.20
21358;PMS7003;13506;50.852;20.632;2022-09-11T11:12:46;6.50;5.00;2.50
21358;PMS7003;13506;50.852;20.632;2022-09-11T11:18:19;6.40;5.60;2.00
21358;PMS7003;13506;50.852;20.632;2022-09-11T11:21:04;4.75;4.00;2.00
21358;PMS7003;13506;50.852;20.632;2022-09-11T11:23:49;14.20;13.00;6.80
21358;PMS7003;13506;50.852;20.632;2022-09-11T11:26:28;12.00;12.00;6.00
21358;PMS7003;13506;50.852;20.632;2022-09-11T11:29:17;7.60;7.00;4.00
21358;PMS7003;13506;50.852;20.632;2022-09-11T11:32:08;6.75;6.00;2.00
21358;PMS7003;13506;50.852;20.632;2022-09-11T11:34:54;6.75;4.25;2.25
21358;PMS7003;13506;50.852;20.632;2022-09-11T11:37:35;4.75;4.75;1.75
21358;PMS7003;13506;50.852;20.632;2022-09-11T11:40:11;4.40;4.40;2.00
21358;PMS7003;13506;50.852;20.632;2022-09-11T11:42:50;6.80;6.60;3.00
21358;PMS7003;13506;50.852;20.632;2022-09-11T11:45:24;6.00;6.00;3.20
21358;PMS7003;13506;50.852;20.632;2022-09-11T11:47:56;6.80;6.00;3.00
21358;PMS7003;13506;50.852;20.632;2022-09-11T11:50:35;6.20;5.40;1.80
21358;PMS7003;13506;50.852;20.632;2022-09-11T11:53:09;10.20;5.00;2.00
21358;PMS7003;13506;50.852;20.632;2022-09-11T11:55:45;7.00;4.60;2.40
21358;PMS7003;13506;50.852;20.632;2022-09-11T11:58:22;5.60;5.20;2.80
21358;PMS7003;13506;50.852;20.632;2022-09-11T12:00:59;7.00;7.00;3.00
21358;PMS7003;13506;50.852;20.632;2022-09-11T12:03:32;6.00;6.00;3.25
21358;PMS7003;13506;50.852;20.632;2022-09-11T12:06:08;5.20;5.20;3.00
21358;PMS7003;13506;50.852;20.632;2022-09-11T12:08:40;6.60;6.40;3.40
21358;PMS7003;13506;50.852;20.632;2022-09-11T12:11:10;5.80;5.80;3.00
21358;PMS7003;13506;50.852;20.632;2022-09-11T12:13:42;8.40;6.80;4.00
21358;PMS7003;13506;50.852;20.632;2022-09-11T12:16:14;9.20;7.60;4.00
21358;PMS7003;13506;50.852;20.632;2022-09-11T12:24:50;8.60;6.60;3.40
21358;PMS7003;13506;50.852;20.632;2022-09-11T12:30:52;6.00;5.50;2.75
21358;PMS7003;13506;50.852;20.632;2022-09-11T12:36:33;6.50;6.50;3.75
21358;PMS7003;13506;50.852;20.632;2022-09-11T12:39:26;7.00;7.00;4.00
21358;PMS7003;13506;50.852;20.632;2022-09-11T12:48:05;9.80;9.00;4.20
21358;PMS7003;13506;50.852;20.632;2022-09-11T12:50:36;9.00;9.00;4.00
21358;PMS7003;13506;50.852;20.632;2022-09-11T12:53:06;9.60;9.00;4.00
21358;PMS7003;13506;50.852;20.632;2022-09-11T12:55:49;9.40;9.40;5.20
21358;PMS7003;13506;50.852;20.632;2022-09-11T12:58:27;16.00;16.00;8.60
21358;PMS7003;13506;50.852;20.632;2022-09-11T13:01:14;9.00;8.00;4.00
21358;PMS7003;13506;50.852;20.632;2022-09-11T13:03:48;8.80;8.60;5.00
21358;PMS7003;13506;50.852;20.632;2022-09-11T13:06:22;10.40;8.20;4.40
21358;PMS7003;13506;50.852;20.632;2022-09-11T13:09:01;7.80;7.80;4.80
21358;PMS7003;13506;50.852;20.632;2022-09-11T13:11:37;9.80;8.20;5.00
21358;PMS7003;13506;50.852;20.632;2022-09-11T13:17:15;9.20;8.60;5.20
21358;PMS7003;13506;50.852;20.632;2022-09-11T13:19:51;7.40;7.00;3.60
21358;PMS7003;13506;50.852;20.632;2022-09-11T13:22:24;14.40;11.80;5.40
21358;PMS7003;13506;50.852;20.632;2022-09-11T13:25:03;12.20;8.40;5.00
21358;PMS7003;13506;50.852;20.632;2022-09-11T13:27:34;10.20;9.40;5.40
21358;PMS7003;13506;50.852;20.632;2022-09-11T13:30:04;15.20;10.80;6.00
21358;PMS7003;13506;50.852;20.632;2022-09-11T13:32:33;9.80;8.80;4.20
21358;PMS7003;13506;50.852;20.632;2022-09-11T13:35:02;11.00;9.00;5.00
21358;PMS7003;13506;50.852;20.632;2022-09-11T13:37:35;8.60;8.60;5.20
21358;PMS7003;13506;50.852;20.632;2022-09-11T13:40:14;9.00;9.00;6.00
21358;PMS7003;13506;50.852;20.632;2022-09-11T13:42:48;10.00;9.20;4.60
21358;PMS7003;13506;50.852;20.632;2022-09-11T13:45:16;13.40;12.40;6.40
21358;PMS7003;13506;50.852;20.632;2022-09-11T13:47:46;13.00;10.80;5.20
21358;PMS7003;13506;50.852;20.632;2022-09-11T13:50:14;14.40;14.40;7.00
21358;PMS7003;13506;50.852;20.632;2022-09-11T13:52:43;12.00;10.00;5.60
21358;PMS7003;13506;50.852;20.632;2022-09-11T13:55:14;16.60;11.80;6.00
21358;PMS7003;13506;50.852;20.632;2022-09-11T13:57:50;14.60;10.80;5.80
21358;PMS7003;13506;50.852;20.632;2022-09-11T14:00:39;14.40;13.40;6.80
21358;PMS7003;13506;50.852;20.632;2022-09-11T14:03:17;14.00;13.80;7.20
21358;PMS7003;13506;50.852;20.632;2022-09-11T14:05:49;11.40;10.00;6.00
21358;PMS7003;13506;50.852;20.632;2022-09-11T14:08:21;14.60;13.00;7.80
21358;PMS7003;13506;50.852;20.632;2022-09-11T14:10:57;16.00;12.80;7.00
21358;PMS7003;13506;50.852;20.632;2022-09-11T14:13:31;11.80;11.00;5.20
21358;PMS7003;13506;50.852;20.632;2022-09-11T14:16:06;11.60;11.20;6.20
21358;PMS7003;13506;50.852;20.632;2022-09-11T14:18:46;12.40;10.80;6.40
21358;PMS7003;13506;50.852;20.632;2022-09-11T14:21:18;12.40;11.00;7.00
21358;PMS7003;13506;50.852;20.632;2022-09-11T14:23:49;12.80;12.40;6.00
21358;PMS7003;13506;50.852;20.632;2022-09-11T14:26:19;14.80;13.20;8.00
21358;PMS7003;13506;50.852;20.632;2022-09-11T14:28:59;13.80;13.80;9.20
21358;PMS7003;13506;50.852;20.632;2022-09-11T14:31:30;14.00;13.20;6.20
21358;PMS7003;13506;50.852;20.632;2022-09-11T14:34:02;11.00;10.00;5.00
21358;PMS7003;13506;50.852;20.632;2022-09-11T14:36:42;30.80;30.20;19.20
21358;PMS7003;13506;50.852;20.632;2022-09-11T14:39:14;24.60;20.60;11.40
21358;PMS7003;13506;50.852;20.632;2022-09-11T14:41:50;12.60;11.20;5.60
21358;PMS7003;13506;50.852;20.632;2022-09-11T14:44:21;11.60;11.60;6.00
21358;PMS7003;13506;50.852;20.632;2022-09-11T14:46:51;15.00;13.80;7.00
21358;PMS7003;13506;50.852;20.632;2022-09-11T14:49:19;14.60;12.40;6.60
21358;PMS7003;13506;50.852;20.632;2022-09-11T14:51:51;12.40;11.20;6.00
21358;PMS7003;13506;50.852;20.632;2022-09-11T14:54:22;14.00;13.60;6.80
21358;PMS7003;13506;50.852;20.632;2022-09-11T14:56:51;12.40;12.40;6.00
21358;PMS7003;13506;50.852;20.632;2022-09-11T14:59:20;14.60;12.00;6.20
21358;PMS7003;13506;50.852;20.632;2022-09-11T15:01:48;13.80;12.80;6.00
21358;PMS7003;13506;50.852;20.632;2022-09-11T15:04:17;12.00;12.00;7.60
21358;PMS7003;13506;50.852;20.632;2022-09-11T15:06:48;12.20;11.80;7.00